createdAt,value
2022-10-01T08:02:25.687Z,24.83
2022-10-01T08:05:11.315Z,26.73
2022-10-01T08:07:38.301Z,24.88
2022-10-01T08:10:05.832Z,26.60
2022-10-01T08:12:32.884Z,23.10
2022-10-01T08:14:59.817Z,23.73
2022-10-01T08:17:29.500Z,23.88
2022-10-01T08:19:56.888Z,25.88
2022-10-01T08:22:25.726Z,24.58
2022-10-01T08:24:52.855Z,26.73
2022-10-01T08:27:19.825Z,25.45
2022-10-01T08:29:47.294Z,25.23
2022-10-01T08:32:14.664Z,27.00
2022-10-01T08:34:41.988Z,26.77
2022-10-01T08:37:09.227Z,27.65
2022-10-01T08:39:37.281Z,28.55
2022-10-01T08:42:52.067Z,26.90
2022-10-01T08:45:49.475Z,28.13
2022-10-01T08:48:33.229Z,24.50
2022-10-01T08:51:11.826Z,23.98
2022-10-01T08:54:17.461Z,26.30
2022-10-01T08:56:47.745Z,23.92
2022-10-01T08:59:43.353Z,21.85
2022-10-01T09:02:23.492Z,20.85
2022-10-01T09:04:56.707Z,20.90
2022-10-01T09:07:44.227Z,21.83
2022-10-01T09:10:29.557Z,20.27
2022-10-01T09:13:30.340Z,21.20
2022-10-01T09:16:35.821Z,21.65
2022-10-01T09:19:14.924Z,20.38
2022-10-01T09:21:54.435Z,20.10
2022-10-01T09:24:41.689Z,20.27
2022-10-01T09:29:52.773Z,24.00
2022-10-01T09:32:26.531Z,26.52
2022-10-01T09:34:54.624Z,25.23
2022-10-01T09:37:27.488Z,25.35
2022-10-01T09:40:03.661Z,27.02
2022-10-01T09:42:32.167Z,29.35
2022-10-01T09:45:00.168Z,30.38
2022-10-01T09:47:27.527Z,24.45
2022-10-01T09:49:54.889Z,25.42
2022-10-01T09:52:33.662Z,24.50
2022-10-01T09:55:06.498Z,23.23
2022-10-01T09:57:40.720Z,21.55
2022-10-01T10:00:12.000Z,22.83
2022-10-01T10:02:49.963Z,25.45
2022-10-01T10:05:28.501Z,25.58
2022-10-01T10:08:00.594Z,26.80
2022-10-01T10:10:30.710Z,25.98
2022-10-01T10:13:09.889Z,22.42
2022-10-01T10:16:01.059Z,20.08
2022-10-01T10:18:34.860Z,13.98
2022-10-01T10:21:07.566Z,11.77
2022-10-01T10:23:35.220Z,10.82
2022-10-01T10:26:05.091Z,12.85
2022-10-01T10:28:46.385Z,10.57
2022-10-01T10:31:22.189Z,11.57
2022-10-01T10:33:52.254Z,10.27
2022-10-01T10:36:21.130Z,10.55
2022-10-01T10:38:51.164Z,10.30
2022-10-01T10:41:26.988Z,10.98
2022-10-01T10:43:59.542Z,11.15
2022-10-01T10:46:32.970Z,13.10
2022-10-01T10:49:08.316Z,12.68
2022-10-01T10:52:17.724Z,18.08
2022-10-01T10:54:48.547Z,12.23
2022-10-01T10:57:31.991Z,13.05
2022-10-01T11:00:11.829Z,16.70
2022-10-01T11:02:41.309Z,14.23
2022-10-01T11:05:20.868Z,14.63
2022-10-01T11:07:50.594Z,13.20
2022-10-01T11:10:39.595Z,13.02
2022-10-01T11:13:23.740Z,19.60
2022-10-01T11:16:24.899Z,8.68
2022-10-01T11:19:27.061Z,10.43
2022-10-01T11:21:56.964Z,13.13
2022-10-01T11:25:04.219Z,8.82
2022-10-01T11:27:36.629Z,7.40
2022-10-01T11:30:42.111Z,7.45
2022-10-01T11:33:37.547Z,10.55
2022-10-01T11:36:56.059Z,8.90
2022-10-01T11:39:28.583Z,8.07
2022-10-01T11:42:06.723Z,8.52
2022-10-01T11:45:01.601Z,9.02
2022-10-01T11:47:38.185Z,10.25
2022-10-01T11:50:13.763Z,8.35
2022-10-01T11:52:56.880Z,11.50
2022-10-01T11:55:51.241Z,10.70
2022-10-01T11:58:52.630Z,12.85
2022-10-01T12:01:50.744Z,10.10
2022-10-01T12:04:33.543Z,8.10
2022-10-01T12:07:38.906Z,11.98
2022-10-01T12:10:17.130Z,9.88
2022-10-01T12:12:56.368Z,9.13
2022-10-01T12:15:29.780Z,9.73
2022-10-01T12:18:06.557Z,8.57
2022-10-01T12:20:46.791Z,7.30
2022-10-01T12:23:34.982Z,6.35
2022-10-01T12:26:32.048Z,6.85
2022-10-01T12:29:27.157Z,6.82
2022-10-01T12:32:16.748Z,9.65
2022-10-01T12:34:54.429Z,5.90
2022-10-01T12:37:31.976Z,7.93
2022-10-01T12:40:05.501Z,8.38
2022-10-01T12:42:51.663Z,8.85
2022-10-01T12:45:32.605Z,9.80
2022-10-01T12:48:04.431Z,8.88
2022-10-01T12:51:09.404Z,9.40
2022-10-01T12:53:51.238Z,8.93
2022-10-01T12:56:33.926Z,9.23
2022-10-01T12:59:40.943Z,10.73
2022-10-01T13:02:35.411Z,7.82
2022-10-01T13:05:36.487Z,9.00
2022-10-01T13:08:26.243Z,9.95
2022-10-01T13:11:22.376Z,10.15
2022-10-01T13:13:52.577Z,7.78
2022-10-01T13:16:33.323Z,8.80
2022-10-01T13:19:00.432Z,9.43
2022-10-01T13:21:55.022Z,10.30
2022-10-01T13:24:48.529Z,8.30
2022-10-01T13:27:36.530Z,8.85
2022-10-01T13:30:26.112Z,7.65
2022-10-01T13:32:57.923Z,7.30
2022-10-01T13:35:30.425Z,6.95
2022-10-01T13:37:59.897Z,6.78
2022-10-01T13:40:33.493Z,7.03
2022-10-01T13:43:03.879Z,8.57
2022-10-01T13:45:52.520Z,7.03
2022-10-01T13:48:34.723Z,7.07
2022-10-01T13:51:11.776Z,7.30
2022-10-01T13:53:41.602Z,7.10
2022-10-01T13:56:12.344Z,6.22
2022-10-01T13:58:41.855Z,7.00
2022-10-01T14:01:42.295Z,7.00
2022-10-01T14:04:18.116Z,7.85
2022-10-01T14:06:54.917Z,6.60
2022-10-01T14:09:42.868Z,6.70
2022-10-01T14:12:48.062Z,6.65
2022-10-01T14:16:07.353Z,7.50
2022-10-01T14:18:38.743Z,6.95
2022-10-01T14:21:09.043Z,6.70
2022-10-01T14:24:23.807Z,7.07
2022-10-01T14:27:14.797Z,8.07
2022-10-01T14:29:48.234Z,8.98
2022-10-01T14:32:44.488Z,9.60
2022-10-01T14:35:20.912Z,8.05
2022-10-01T14:37:48.243Z,10.55
2022-10-01T14:40:21.239Z,11.20
2022-10-01T14:43:02.131Z,9.70
2022-10-01T14:45:30.263Z,9.23
2022-10-01T14:48:02.489Z,11.65
2022-10-01T14:50:32.088Z,12.45
2022-10-01T14:52:59.134Z,11.07
2022-10-01T14:55:27.031Z,11.63
2022-10-01T14:57:56.328Z,10.32
2022-10-01T15:00:28.818Z,11.68
2022-10-01T15:03:15.345Z,11.43
2022-10-01T15:05:43.630Z,9.80
2022-10-01T15:08:14.875Z,10.93
2022-10-01T15:10:53.620Z,11.00
2022-10-01T15:13:28.275Z,10.23
2022-10-01T15:15:56.271Z,11.00
2022-10-01T15:18:24.285Z,11.88
2022-10-01T15:20:55.023Z,13.75
2022-10-01T15:23:25.569Z,12.15
2022-10-01T15:25:53.956Z,14.07
2022-10-01T15:28:32.976Z,14.48
2022-10-01T15:31:03.510Z,14.15
2022-10-01T15:33:41.187Z,14.70
2022-10-01T15:36:13.705Z,14.63
2022-10-01T15:38:44.512Z,16.00
2022-10-01T15:41:33.029Z,15.45
2022-10-01T15:44:05.655Z,15.57
2022-10-01T15:46:35.612Z,15.40
2022-10-01T15:49:16.166Z,15.88
2022-10-01T15:52:21.792Z,17.55
2022-10-01T15:54:59.042Z,15.38
2022-10-01T15:57:28.497Z,15.88
2022-10-01T15:59:57.897Z,15.50
2022-10-01T16:02:29.034Z,13.88
2022-10-01T16:05:04.683Z,13.95
2022-10-01T16:07:34.903Z,13.30
2022-10-01T16:10:15.591Z,12.25
2022-10-01T16:12:42.742Z,13.02
2022-10-01T16:15:32.860Z,12.50
2022-10-01T16:18:05.082Z,14.88
2022-10-01T16:20:46.581Z,13.32
2022-10-01T16:23:42.130Z,13.63
2022-10-01T16:26:30.050Z,13.63
2022-10-01T16:29:07.446Z,16.30
2022-10-01T16:31:36.635Z,16.25
2022-10-01T16:34:11.057Z,16.65
2022-10-01T16:36:39.021Z,21.13
2022-10-01T16:39:09.002Z,22.92
2022-10-01T16:41:36.647Z,21.15
2022-10-01T16:44:05.517Z,23.35
2022-10-01T16:46:33.552Z,25.80
2022-10-01T16:49:00.731Z,26.80
2022-10-01T16:51:28.547Z,26.60
2022-10-01T16:53:55.577Z,25.95
2022-10-01T16:56:26.889Z,20.80
2022-10-01T16:58:54.780Z,22.38
2022-10-01T17:01:21.815Z,24.10
2022-10-01T17:03:48.775Z,23.05
2022-10-01T17:06:15.763Z,24.85
2022-10-01T17:08:42.654Z,24.33
2022-10-01T17:11:12.772Z,25.08
2022-10-01T17:13:39.904Z,24.27
2022-10-01T17:16:07.356Z,23.23
2022-10-01T17:18:34.401Z,24.75
2022-10-01T17:21:05.666Z,18.05
2022-10-01T17:23:35.006Z,18.40
2022-10-01T17:26:02.004Z,16.38
2022-10-01T17:28:29.015Z,19.95
2022-10-01T17:30:56.258Z,19.85
2022-10-01T17:33:23.288Z,20.23
2022-10-01T17:35:55.745Z,19.50
2022-10-01T17:38:23.616Z,21.75
2022-10-01T17:40:56.364Z,20.17
2022-10-01T17:43:23.882Z,26.95
2022-10-01T17:45:56.757Z,29.27
2022-10-01T17:48:26.426Z,28.98
2022-10-01T17:51:00.264Z,27.45
2022-10-01T17:53:32.898Z,32.58
2022-10-01T17:56:07.228Z,34.03
2022-10-01T17:58:34.200Z,32.97
2022-10-01T18:01:01.843Z,28.52
2022-10-01T18:03:28.909Z,29.17
2022-10-01T18:06:03.287Z,30.42
2022-10-01T18:08:51.161Z,28.20
2022-10-01T18:11:19.127Z,26.50
2022-10-01T18:13:46.102Z,23.38
2022-10-01T18:16:19.086Z,20.40
2022-10-01T18:26:33.090Z,17.10
2022-10-01T18:29:00.873Z,17.05
2022-10-01T18:31:38.152Z,16.08
2022-10-01T18:34:15.259Z,15.00
2022-10-01T18:36:58.393Z,15.63
2022-10-01T18:39:36.955Z,24.92
2022-10-01T18:42:23.989Z,20.92
2022-10-01T18:45:00.722Z,27.05
2022-10-01T18:47:43.515Z,28.77
2022-10-01T18:50:22.335Z,25.85
2022-10-01T18:53:07.191Z,24.88
2022-10-01T18:55:42.891Z,28.73
2022-10-01T18:58:22.581Z,30.95
2022-10-01T19:01:00.517Z,31.65
2022-10-01T19:03:48.761Z,31.23
2022-10-01T19:06:23.369Z,29.05
2022-10-01T19:09:02.027Z,34.85
2022-10-01T19:12:09.051Z,34.25
2022-10-01T19:14:57.727Z,27.17
2022-10-01T19:17:33.695Z,31.52
2022-10-01T19:20:17.165Z,29.37
2022-10-01T19:22:44.054Z,27.15
2022-10-01T19:25:29.479Z,27.52
2022-10-01T19:28:02.377Z,25.10
2022-10-01T19:30:40.268Z,25.25
2022-10-01T19:33:11.291Z,25.10
2022-10-01T19:35:41.780Z,25.35
2022-10-01T19:38:29.881Z,25.85
2022-10-01T19:41:06.896Z,25.95
2022-10-01T19:43:43.220Z,27.13
2022-10-01T19:46:16.657Z,27.40
2022-10-01T19:48:57.136Z,26.08
2022-10-01T19:51:30.403Z,25.33
2022-10-01T19:54:01.206Z,23.88
2022-10-01T19:56:35.271Z,22.05
2022-10-01T19:59:11.150Z,21.35
2022-10-01T20:01:43.308Z,21.45
2022-10-01T20:04:38.252Z,19.48
2022-10-01T20:07:14.915Z,21.38
2022-10-01T20:09:47.857Z,19.70
2022-10-01T20:12:36.300Z,18.83
2022-10-01T20:15:22.755Z,27.42
2022-10-01T20:18:04.851Z,25.75
2022-10-01T20:20:42.036Z,26.88
2022-10-01T20:23:24.998Z,26.17
2022-10-01T20:26:15.906Z,24.92
2022-10-01T20:28:58.456Z,25.77
2022-10-01T20:31:41.878Z,30.15
2022-10-01T20:34:11.482Z,29.88
2022-10-01T20:36:41.404Z,31.27
2022-10-01T20:39:34.403Z,27.65
2022-10-01T20:42:03.795Z,27.67
2022-10-01T20:44:38.261Z,29.20
2022-10-01T20:47:12.572Z,28.73
2022-10-01T20:49:56.095Z,25.55
2022-10-01T20:53:04.383Z,26.60
2022-10-01T20:55:39.332Z,29.02
2022-10-01T20:58:19.397Z,29.23
2022-10-01T21:00:47.998Z,25.60
2022-10-01T21:03:31.939Z,27.60
2022-10-01T21:06:26.793Z,29.00
2022-10-01T21:09:03.628Z,31.98
2022-10-01T21:11:39.908Z,33.08
2022-10-01T21:14:20.881Z,26.58
2022-10-01T21:17:24.846Z,25.70
2022-10-01T21:20:12.056Z,25.30
2022-10-01T21:22:51.479Z,26.00
2022-10-01T21:25:26.687Z,31.02
2022-10-01T21:28:18.972Z,33.38
2022-10-01T21:31:08.989Z,35.05
2022-10-01T21:33:54.155Z,35.72
2022-10-01T21:36:38.849Z,34.03
2022-10-01T21:39:36.860Z,32.83
2022-10-01T21:45:14.883Z,30.33
2022-10-01T21:47:44.786Z,33.15
2022-10-01T21:50:23.822Z,31.67
2022-10-01T21:53:16.114Z,27.20
2022-10-01T21:56:18.388Z,28.50
2022-10-01T21:59:08.236Z,29.38
2022-10-01T22:01:48.932Z,25.95
2022-10-01T22:04:19.482Z,26.17
2022-10-01T22:07:23.910Z,27.35
2022-10-01T22:10:12.563Z,28.80
2022-10-01T22:12:42.729Z,29.45
2022-10-01T22:15:28.600Z,29.15
2022-10-01T22:17:58.084Z,28.83
2022-10-01T22:20:29.621Z,27.58
2022-10-01T22:23:01.968Z,28.77
2022-10-01T22:25:30.471Z,28.23
2022-10-01T22:28:07.576Z,31.38
2022-10-01T22:30:38.969Z,30.45
2022-10-01T22:33:17.100Z,28.27
2022-10-01T22:36:11.122Z,25.33
2022-10-01T22:39:00.476Z,24.92
2022-10-01T22:41:39.072Z,24.85
2022-10-01T22:44:20.127Z,23.17
2022-10-01T22:47:17.155Z,25.38
2022-10-01T22:49:50.054Z,24.00
2022-10-01T22:52:47.558Z,24.67
2022-10-01T22:55:39.062Z,23.77
2022-10-01T22:58:47.136Z,23.98
2022-10-01T23:01:24.291Z,20.33
2022-10-01T23:04:11.736Z,20.70
2022-10-01T23:06:59.562Z,19.98
2022-10-01T23:10:10.539Z,25.40
2022-10-01T23:12:37.437Z,26.98
2022-10-01T23:15:16.070Z,27.42
2022-10-01T23:17:51.465Z,25.02
2022-10-01T23:20:29.819Z,23.75
2022-10-01T23:23:27.579Z,20.83
2022-10-01T23:26:00.246Z,20.15
2022-10-01T23:28:45.720Z,20.77
2022-10-01T23:31:43.306Z,20.63
2022-10-01T23:34:30.526Z,20.20
2022-10-01T23:37:17.868Z,18.45
2022-10-01T23:39:52.352Z,17.63
2022-10-01T23:42:30.516Z,16.42
2022-10-01T23:45:33.393Z,17.85
2022-10-01T23:48:13.022Z,19.35
2022-10-01T23:51:01.748Z,22.35
2022-10-01T23:53:36.204Z,22.27
2022-10-01T23:56:34.561Z,22.95
2022-10-01T23:59:15.760Z,25.33
